sensor_id;sensor_type;location;lat;lon;timestamp;temperature;humidity
5192;DHT22;2615;44.524;11.284;2023-10-19T00:00:54;13.90;59.70
5192;DHT22;2615;44.524;11.284;2023-10-19T00:03:24;13.90;59.70
5192;DHT22;2615;44.524;11.284;2023-10-19T00:05:51;13.90;59.70
5192;DHT22;2615;44.524;11.284;2023-10-19T00:08:21;13.90;60.40
5192;DHT22;2615;44.524;11.284;2023-10-19T00:10:52;13.90;59.70
5192;DHT22;2615;44.524;11.284;2023-10-19T00:13:29;13.90;59.70
5192;DHT22;2615;44.524;11.284;2023-10-19T00:15:57;13.90;59.70
5192;DHT22;2615;44.524;11.284;2023-10-19T00:18:25;13.90;59.70
5192;DHT22;2615;44.524;11.284;2023-10-19T00:20:55;13.90;59.70
5192;DHT22;2615;44.524;11.284;2023-10-19T00:23:28;13.90;59.70
5192;DHT22;2615;44.524;11.284;2023-10-19T00:26:00;13.90;59.70
5192;DHT22;2615;44.524;11.284;2023-10-19T00:28:34;13.90;59.80
5192;DHT22;2615;44.524;11.284;2023-10-19T00:31:02;13.90;59.80
5192;DHT22;2615;44.524;11.284;2023-10-19T00:33:35;13.90;59.80
5192;DHT22;2615;44.524;11.284;2023-10-19T00:36:06;13.90;59.80
5192;DHT22;2615;44.524;11.284;2023-10-19T00:38:37;13.90;59.80
5192;DHT22;2615;44.524;11.284;2023-10-19T00:41:15;13.90;59.80
5192;DHT22;2615;44.524;11.284;2023-10-19T00:43:48;13.90;59.80
5192;DHT22;2615;44.524;11.284;2023-10-19T00:46:19;13.90;59.90
5192;DHT22;2615;44.524;11.284;2023-10-19T00:48:59;13.90;59.90
5192;DHT22;2615;44.524;11.284;2023-10-19T00:51:33;13.80;59.80
5192;DHT22;2615;44.524;11.284;2023-10-19T00:54:14;13.90;60.00
5192;DHT22;2615;44.524;11.284;2023-10-19T00:56:46;13.90;60.00
5192;DHT22;2615;44.524;11.284;2023-10-19T00:59:18;13.90;60.00
5192;DHT22;2615;44.524;11.284;2023-10-19T01:01:50;13.90;60.00
5192;DHT22;2615;44.524;11.284;2023-10-19T01:04:21;13.80;59.90
5192;DHT22;2615;44.524;11.284;2023-10-19T01:06:51;13.80;59.90
5192;DHT22;2615;44.524;11.284;2023-10-19T01:09:33;13.80;60.00
5192;DHT22;2615;44.524;11.284;2023-10-19T01:12:03;13.70;59.90
5192;DHT22;2615;44.524;11.284;2023-10-19T01:15:01;13.80;60.00
5192;DHT22;2615;44.524;11.284;2023-10-19T01:17:33;13.70;60.00
5192;DHT22;2615;44.524;11.284;2023-10-19T01:20:08;13.70;60.00
5192;DHT22;2615;44.524;11.284;2023-10-19T01:22:52;13.80;60.10
5192;DHT22;2615;44.524;11.284;2023-10-19T01:25:44;13.80;60.00
5192;DHT22;2615;44.524;11.284;2023-10-19T01:28:17;13.80;60.00
5192;DHT22;2615;44.524;11.284;2023-10-19T01:30:46;13.70;60.00
5192;DHT22;2615;44.524;11.284;2023-10-19T01:33:19;13.70;60.00
5192;DHT22;2615;44.524;11.284;2023-10-19T01:35:47;13.70;60.00
5192;DHT22;2615;44.524;11.284;2023-10-19T01:38:34;13.80;60.10
5192;DHT22;2615;44.524;11.284;2023-10-19T01:41:04;13.70;60.00
5192;DHT22;2615;44.524;11.284;2023-10-19T01:43:34;13.70;60.10
5192;DHT22;2615;44.524;11.284;2023-10-19T01:46:07;13.70;60.10
5192;DHT22;2615;44.524;11.284;2023-10-19T01:48:39;13.70;60.10
5192;DHT22;2615;44.524;11.284;2023-10-19T01:51:09;13.70;60.10
5192;DHT22;2615;44.524;11.284;2023-10-19T01:53:39;13.70;60.10
5192;DHT22;2615;44.524;11.284;2023-10-19T01:56:09;13.70;60.10
5192;DHT22;2615;44.524;11.284;2023-10-19T01:58:36;13.70;60.20
5192;DHT22;2615;44.524;11.284;2023-10-19T02:01:07;13.70;60.20
5192;DHT22;2615;44.524;11.284;2023-10-19T02:03:35;13.70;60.10
5192;DHT22;2615;44.524;11.284;2023-10-19T02:06:04;13.80;60.30
5192;DHT22;2615;44.524;11.284;2023-10-19T02:08:38;13.70;60.10
5192;DHT22;2615;44.524;11.284;2023-10-19T02:11:06;13.70;60.10
5192;DHT22;2615;44.524;11.284;2023-10-19T02:13:45;13.70;60.10
5192;DHT22;2615;44.524;11.284;2023-10-19T02:16:14;13.70;60.20
5192;DHT22;2615;44.524;11.284;2023-10-19T02:18:43;13.70;60.10
5192;DHT22;2615;44.524;11.284;2023-10-19T02:21:11;13.70;60.20
5192;DHT22;2615;44.524;11.284;2023-10-19T02:23:41;13.70;60.30
5192;DHT22;2615;44.524;11.284;2023-10-19T02:26:09;13.70;60.30
5192;DHT22;2615;44.524;11.284;2023-10-19T02:28:39;13.70;60.40
5192;DHT22;2615;44.524;11.284;2023-10-19T02:31:08;13.70;60.40
5192;DHT22;2615;44.524;11.284;2023-10-19T02:33:42;13.70;60.50
5192;DHT22;2615;44.524;11.284;2023-10-19T02:36:17;13.70;60.50
5192;DHT22;2615;44.524;11.284;2023-10-19T02:38:47;13.70;60.50
5192;DHT22;2615;44.524;11.284;2023-10-19T02:41:19;13.60;60.40
5192;DHT22;2615;44.524;11.284;2023-10-19T02:43:46;13.60;60.40
5192;DHT22;2615;44.524;11.284;2023-10-19T02:46:18;13.60;60.50
5192;DHT22;2615;44.524;11.284;2023-10-19T02:48:47;13.50;60.30
5192;DHT22;2615;44.524;11.284;2023-10-19T02:51:16;13.50;60.50
5192;DHT22;2615;44.524;11.284;2023-10-19T02:53:47;13.50;60.70
5192;DHT22;2615;44.524;11.284;2023-10-19T02:56:15;13.40;60.70
5192;DHT22;2615;44.524;11.284;2023-10-19T02:58:45;13.50;60.80
5192;DHT22;2615;44.524;11.284;2023-10-19T03:01:17;13.50;60.90
5192;DHT22;2615;44.524;11.284;2023-10-19T03:03:50;13.50;60.90
5192;DHT22;2615;44.524;11.284;2023-10-19T03:06:21;13.50;60.90
5192;DHT22;2615;44.524;11.284;2023-10-19T03:08:50;13.50;60.90
5192;DHT22;2615;44.524;11.284;2023-10-19T03:11:24;13.50;60.90
5192;DHT22;2615;44.524;11.284;2023-10-19T03:13:54;13.50;60.90
5192;DHT22;2615;44.524;11.284;2023-10-19T03:16:22;13.50;61.00
5192;DHT22;2615;44.524;11.284;2023-10-19T03:18:50;13.50;60.90
5192;DHT22;2615;44.524;11.284;2023-10-19T03:21:18;13.50;61.00
5192;DHT22;2615;44.524;11.284;2023-10-19T03:23:54;13.50;61.00
5192;DHT22;2615;44.524;11.284;2023-10-19T03:26:23;13.50;61.00
5192;DHT22;2615;44.524;11.284;2023-10-19T03:28:57;13.50;61.00
5192;DHT22;2615;44.524;11.284;2023-10-19T03:31:29;13.60;61.20
5192;DHT22;2615;44.524;11.284;2023-10-19T03:34:00;13.60;61.20
5192;DHT22;2615;44.524;11.284;2023-10-19T03:36:32;13.50;61.00
5192;DHT22;2615;44.524;11.284;2023-10-19T03:39:01;13.60;61.10
5192;DHT22;2615;44.524;11.284;2023-10-19T03:41:38;13.50;61.10
5192;DHT22;2615;44.524;11.284;2023-10-19T03:44:08;13.50;61.10
5192;DHT22;2615;44.524;11.284;2023-10-19T03:46:43;13.50;61.10
5192;DHT22;2615;44.524;11.284;2023-10-19T03:49:23;13.50;61.20
5192;DHT22;2615;44.524;11.284;2023-10-19T03:51:57;13.50;61.20
5192;DHT22;2615;44.524;11.284;2023-10-19T03:54:28;13.60;61.30
5192;DHT22;2615;44.524;11.284;2023-10-19T03:56:59;13.60;61.30
5192;DHT22;2615;44.524;11.284;2023-10-19T03:59:33;13.60;61.30
5192;DHT22;2615;44.524;11.284;2023-10-19T04:02:01;13.50;61.10
5192;DHT22;2615;44.524;11.284;2023-10-19T04:04:36;13.50;61.20
5192;DHT22;2615;44.524;11.284;2023-10-19T04:07:06;13.60;61.30
5192;DHT22;2615;44.524;11.284;2023-10-19T04:09:47;13.60;61.40
5192;DHT22;2615;44.524;11.284;2023-10-19T04:12:38;13.60;61.40
5192;DHT22;2615;44.524;11.284;2023-10-19T04:15:10;13.60;61.30
5192;DHT22;2615;44.524;11.284;2023-10-19T04:17:42;13.60;61.40
5192;DHT22;2615;44.524;11.284;2023-10-19T04:20:11;13.60;61.30
5192;DHT22;2615;44.524;11.284;2023-10-19T04:22:56;13.60;61.40
5192;DHT22;2615;44.524;11.284;2023-10-19T04:25:27;13.60;61.30
5192;DHT22;2615;44.524;11.284;2023-10-19T04:27:56;13.60;61.50
5192;DHT22;2615;44.524;11.284;2023-10-19T04:30:24;13.60;61.40
5192;DHT22;2615;44.524;11.284;2023-10-19T04:32:53;13.60;61.40
5192;DHT22;2615;44.524;11.284;2023-10-19T04:35:24;13.60;61.40
5192;DHT22;2615;44.524;11.284;2023-10-19T04:37:57;13.60;61.50
5192;DHT22;2615;44.524;11.284;2023-10-19T04:40:28;13.60;61.50
5192;DHT22;2615;44.524;11.284;2023-10-19T04:42:56;13.60;61.50
5192;DHT22;2615;44.524;11.284;2023-10-19T04:45:24;13.60;61.50
5192;DHT22;2615;44.524;11.284;2023-10-19T04:47:53;13.60;61.50
5192;DHT22;2615;44.524;11.284;2023-10-19T04:50:22;13.60;61.50
5192;DHT22;2615;44.524;11.284;2023-10-19T04:52:50;13.60;61.50
5192;DHT22;2615;44.524;11.284;2023-10-19T04:55:18;13.60;61.50
5192;DHT22;2615;44.524;11.284;2023-10-19T04:57:48;13.60;61.60
5192;DHT22;2615;44.524;11.284;2023-10-19T05:00:18;13.60;61.60
5192;DHT22;2615;44.524;11.284;2023-10-19T05:02:48;13.60;61.60
5192;DHT22;2615;44.524;11.284;2023-10-19T05:05:19;13.60;61.60
5192;DHT22;2615;44.524;11.284;2023-10-19T05:07:47;13.60;61.60
5192;DHT22;2615;44.524;11.284;2023-10-19T05:10:15;13.60;61.60
5192;DHT22;2615;44.524;11.284;2023-10-19T05:12:44;13.60;61.60
5192;DHT22;2615;44.524;11.284;2023-10-19T05:15:13;13.60;61.60
5192;DHT22;2615;44.524;11.284;2023-10-19T05:17:42;13.60;61.60
5192;DHT22;2615;44.524;11.284;2023-10-19T05:20:11;13.60;61.60
5192;DHT22;2615;44.524;11.284;2023-10-19T05:22:39;13.60;61.70
5192;DHT22;2615;44.524;11.284;2023-10-19T05:25:08;13.60;61.70
5192;DHT22;2615;44.524;11.284;2023-10-19T05:27:37;13.60;61.70
5192;DHT22;2615;44.524;11.284;2023-10-19T05:30:07;13.70;61.80
5192;DHT22;2615;44.524;11.284;2023-10-19T05:32:38;13.70;61.80
5192;DHT22;2615;44.524;11.284;2023-10-19T05:35:07;13.70;61.70
5192;DHT22;2615;44.524;11.284;2023-10-19T05:37:40;13.70;61.70
5192;DHT22;2615;44.524;11.284;2023-10-19T05:40:09;13.70;61.70
5192;DHT22;2615;44.524;11.284;2023-10-19T05:42:42;13.70;61.80
5192;DHT22;2615;44.524;11.284;2023-10-19T05:45:10;13.70;61.70
5192;DHT22;2615;44.524;11.284;2023-10-19T05:47:41;13.70;61.70
5192;DHT22;2615;44.524;11.284;2023-10-19T05:50:10;13.70;61.80
5192;DHT22;2615;44.524;11.284;2023-10-19T05:52:41;13.70;61.70
5192;DHT22;2615;44.524;11.284;2023-10-19T05:55:10;13.80;61.90
5192;DHT22;2615;44.524;11.284;2023-10-19T05:57:39;13.80;61.80
5192;DHT22;2615;44.524;11.284;2023-10-19T06:00:09;13.80;61.80
5192;DHT22;2615;44.524;11.284;2023-10-19T06:02:43;13.80;61.90
5192;DHT22;2615;44.524;11.284;2023-10-19T06:05:13;13.80;61.90
5192;DHT22;2615;44.524;11.284;2023-10-19T06:07:43;13.80;61.80
5192;DHT22;2615;44.524;11.284;2023-10-19T06:10:12;13.80;61.80
5192;DHT22;2615;44.524;11.284;2023-10-19T06:12:44;13.80;61.90
5192;DHT22;2615;44.524;11.284;2023-10-19T06:15:13;13.80;61.90
5192;DHT22;2615;44.524;11.284;2023-10-19T06:17:43;13.90;62.00
5192;DHT22;2615;44.524;11.284;2023-10-19T06:20:13;13.90;62.00
5192;DHT22;2615;44.524;11.284;2023-10-19T06:22:51;13.80;61.80
5192;DHT22;2615;44.524;11.284;2023-10-19T06:25:20;13.80;61.90
5192;DHT22;2615;44.524;11.284;2023-10-19T06:27:49;13.80;62.00
5192;DHT22;2615;44.524;11.284;2023-10-19T06:30:18;13.80;62.00
5192;DHT22;2615;44.524;11.284;2023-10-19T06:32:53;13.80;62.10
5192;DHT22;2615;44.524;11.284;2023-10-19T06:35:23;13.80;62.10
5192;DHT22;2615;44.524;11.284;2023-10-19T06:37:52;13.90;62.10
5192;DHT22;2615;44.524;11.284;2023-10-19T06:40:22;13.90;62.20
5192;DHT22;2615;44.524;11.284;2023-10-19T06:42:50;13.90;62.20
5192;DHT22;2615;44.524;11.284;2023-10-19T06:45:18;13.90;62.10
5192;DHT22;2615;44.524;11.284;2023-10-19T06:47:48;13.90;62.20
5192;DHT22;2615;44.524;11.284;2023-10-19T06:50:19;13.90;62.20
5192;DHT22;2615;44.524;11.284;2023-10-19T06:52:48;13.90;62.20
5192;DHT22;2615;44.524;11.284;2023-10-19T06:55:18;13.90;62.20
5192;DHT22;2615;44.524;11.284;2023-10-19T06:57:48;13.90;62.20
5192;DHT22;2615;44.524;11.284;2023-10-19T07:00:18;13.90;62.10
5192;DHT22;2615;44.524;11.284;2023-10-19T07:02:48;14.00;62.30
5192;DHT22;2615;44.524;11.284;2023-10-19T07:05:20;14.00;62.20
5192;DHT22;2615;44.524;11.284;2023-10-19T07:07:50;14.00;62.20
5192;DHT22;2615;44.524;11.284;2023-10-19T07:10:22;14.00;62.20
5192;DHT22;2615;44.524;11.284;2023-10-19T07:12:52;14.00;62.20
5192;DHT22;2615;44.524;11.284;2023-10-19T07:15:21;14.00;62.30
5192;DHT22;2615;44.524;11.284;2023-10-19T07:17:50;14.00;62.30
5192;DHT22;2615;44.524;11.284;2023-10-19T07:20:23;14.00;62.30
5192;DHT22;2615;44.524;11.284;2023-10-19T07:22:54;14.00;62.30
5192;DHT22;2615;44.524;11.284;2023-10-19T07:25:23;14.10;62.30
5192;DHT22;2615;44.524;11.284;2023-10-19T07:27:53;14.10;62.30
5192;DHT22;2615;44.524;11.284;2023-10-19T07:30:21;14.10;62.30
5192;DHT22;2615;44.524;11.284;2023-10-19T07:32:53;14.20;62.40
5192;DHT22;2615;44.524;11.284;2023-10-19T07:35:27;14.20;62.30
5192;DHT22;2615;44.524;11.284;2023-10-19T07:38:01;14.20;62.30
5192;DHT22;2615;44.524;11.284;2023-10-19T07:40:30;14.20;62.30
5192;DHT22;2615;44.524;11.284;2023-10-19T07:42:59;14.30;62.40
5192;DHT22;2615;44.524;11.284;2023-10-19T07:45:27;14.30;62.40
5192;DHT22;2615;44.524;11.284;2023-10-19T07:47:55;14.40;62.50
5192;DHT22;2615;44.524;11.284;2023-10-19T07:50:24;14.40;62.40
5192;DHT22;2615;44.524;11.284;2023-10-19T07:52:54;14.40;62.40
5192;DHT22;2615;44.524;11.284;2023-10-19T07:55:22;14.50;62.50
5192;DHT22;2615;44.524;11.284;2023-10-19T07:57:51;14.50;62.40
5192;DHT22;2615;44.524;11.284;2023-10-19T08:00:21;14.50;62.40
5192;DHT22;2615;44.524;11.284;2023-10-19T08:02:51;14.50;62.30
5192;DHT22;2615;44.524;11.284;2023-10-19T08:05:20;14.50;62.40
5192;DHT22;2615;44.524;11.284;2023-10-19T08:07:49;14.50;62.50
5192;DHT22;2615;44.524;11.284;2023-10-19T08:10:20;14.50;62.40
5192;DHT22;2615;44.524;11.284;2023-10-19T08:12:49;14.50;62.50
5192;DHT22;2615;44.524;11.284;2023-10-19T08:15:19;14.60;62.40
5192;DHT22;2615;44.524;11.284;2023-10-19T08:17:49;14.60;62.40
5192;DHT22;2615;44.524;11.284;2023-10-19T08:20:18;14.60;62.40
5192;DHT22;2615;44.524;11.284;2023-10-19T08:22:52;14.70;62.40
5192;DHT22;2615;44.524;11.284;2023-10-19T08:25:23;14.70;62.30
5192;DHT22;2615;44.524;11.284;2023-10-19T08:27:54;14.70;62.30
5192;DHT22;2615;44.524;11.284;2023-10-19T08:30:24;14.70;62.30
5192;DHT22;2615;44.524;11.284;2023-10-19T08:32:54;14.80;62.50
5192;DHT22;2615;44.524;11.284;2023-10-19T08:35:26;14.80;62.30
5192;DHT22;2615;44.524;11.284;2023-10-19T08:37:55;14.80;62.30
5192;DHT22;2615;44.524;11.284;2023-10-19T08:40:26;14.80;62.30
5192;DHT22;2615;44.524;11.284;2023-10-19T08:42:55;14.80;62.30
5192;DHT22;2615;44.524;11.284;2023-10-19T08:45:24;14.90;62.40
5192;DHT22;2615;44.524;11.284;2023-10-19T08:47:54;14.90;62.30
5192;DHT22;2615;44.524;11.284;2023-10-19T08:50:25;14.90;62.30
5192;DHT22;2615;44.524;11.284;2023-10-19T08:52:54;14.90;62.30
5192;DHT22;2615;44.524;11.284;2023-10-19T08:55:23;14.80;62.30
5192;DHT22;2615;44.524;11.284;2023-10-19T08:58:13;14.80;62.40
5192;DHT22;2615;44.524;11.284;2023-10-19T09:00:44;14.90;62.50
5192;DHT22;2615;44.524;11.284;2023-10-19T09:03:16;14.90;62.40
5192;DHT22;2615;44.524;11.284;2023-10-19T09:05:45;15.00;62.50
5192;DHT22;2615;44.524;11.284;2023-10-19T09:08:16;15.00;62.40
5192;DHT22;2615;44.524;11.284;2023-10-19T09:10:48;15.00;62.40
5192;DHT22;2615;44.524;11.284;2023-10-19T09:13:20;15.00;62.40
5192;DHT22;2615;44.524;11.284;2023-10-19T09:15:50;15.00;62.40
5192;DHT22;2615;44.524;11.284;2023-10-19T09:18:22;14.90;63.10
5192;DHT22;2615;44.524;11.284;2023-10-19T09:20:52;14.90;62.40
5192;DHT22;2615;44.524;11.284;2023-10-19T09:23:24;14.90;62.50
5192;DHT22;2615;44.524;11.284;2023-10-19T09:25:57;14.90;62.60
5192;DHT22;2615;44.524;11.284;2023-10-19T09:28:26;14.90;62.60
5192;DHT22;2615;44.524;11.284;2023-10-19T09:30:55;14.90;62.60
5192;DHT22;2615;44.524;11.284;2023-10-19T09:33:24;14.90;62.60
5192;DHT22;2615;44.524;11.284;2023-10-19T09:35:53;14.90;62.60
5192;DHT22;2615;44.524;11.284;2023-10-19T09:38:24;14.90;62.60
5192;DHT22;2615;44.524;11.284;2023-10-19T09:40:54;15.00;62.70
5192;DHT22;2615;44.524;11.284;2023-10-19T09:43:30;15.00;62.60
5192;DHT22;2615;44.524;11.284;2023-10-19T09:46:04;15.00;62.60
5192;DHT22;2615;44.524;11.284;2023-10-19T09:48:39;15.00;62.60
5192;DHT22;2615;44.524;11.284;2023-10-19T09:51:09;15.00;62.60
5192;DHT22;2615;44.524;11.284;2023-10-19T09:53:43;15.10;62.60
5192;DHT22;2615;44.524;11.284;2023-10-19T09:56:17;15.10;62.60
5192;DHT22;2615;44.524;11.284;2023-10-19T09:58:52;15.10;62.60
5192;DHT22;2615;44.524;11.284;2023-10-19T10:01:21;15.20;62.70
5192;DHT22;2615;44.524;11.284;2023-10-19T10:03:51;15.20;62.60
5192;DHT22;2615;44.524;11.284;2023-10-19T10:06:27;15.30;62.60
5192;DHT22;2615;44.524;11.284;2023-10-19T10:08:57;15.30;62.50
5192;DHT22;2615;44.524;11.284;2023-10-19T10:11:27;15.40;62.50
5192;DHT22;2615;44.524;11.284;2023-10-19T10:13:58;15.30;62.40
5192;DHT22;2615;44.524;11.284;2023-10-19T10:16:27;15.30;62.40
5192;DHT22;2615;44.524;11.284;2023-10-19T10:18:58;15.30;62.40
5192;DHT22;2615;44.524;11.284;2023-10-19T10:21:28;15.40;62.60
5192;DHT22;2615;44.524;11.284;2023-10-19T10:23:58;15.40;62.50
5192;DHT22;2615;44.524;11.284;2023-10-19T10:26:30;15.50;62.50
5192;DHT22;2615;44.524;11.284;2023-10-19T10:29:12;15.50;62.40
5192;DHT22;2615;44.524;11.284;2023-10-19T10:31:42;15.50;62.40
5192;DHT22;2615;44.524;11.284;2023-10-19T10:34:12;15.60;62.50
5192;DHT22;2615;44.524;11.284;2023-10-19T10:37:01;15.60;62.50
5192;DHT22;2615;44.524;11.284;2023-10-19T10:39:30;15.60;62.40
5192;DHT22;2615;44.524;11.284;2023-10-19T10:42:00;15.70;62.50
5192;DHT22;2615;44.524;11.284;2023-10-19T10:44:37;15.70;62.30
5192;DHT22;2615;44.524;11.284;2023-10-19T10:47:08;15.80;62.30
5192;DHT22;2615;44.524;11.284;2023-10-19T10:49:50;15.80;62.30
5192;DHT22;2615;44.524;11.284;2023-10-19T10:52:29;15.80;62.30
5192;DHT22;2615;44.524;11.284;2023-10-19T10:55:05;15.80;62.20
5192;DHT22;2615;44.524;11.284;2023-10-19T10:57:34;15.80;62.30
5192;DHT22;2615;44.524;11.284;2023-10-19T11:00:06;15.80;62.30
5192;DHT22;2615;44.524;11.284;2023-10-19T11:02:36;15.80;62.30
5192;DHT22;2615;44.524;11.284;2023-10-19T11:05:10;15.80;62.30
5192;DHT22;2615;44.524;11.284;2023-10-19T11:07:40;15.80;62.30
5192;DHT22;2615;44.524;11.284;2023-10-19T11:10:08;15.80;62.30
5192;DHT22;2615;44.524;11.284;2023-10-19T11:12:37;15.80;62.10
5192;DHT22;2615;44.524;11.284;2023-10-19T11:15:08;15.80;62.20
5192;DHT22;2615;44.524;11.284;2023-10-19T11:17:43;15.80;62.30
5192;DHT22;2615;44.524;11.284;2023-10-19T11:20:21;15.80;62.40
5192;DHT22;2615;44.524;11.284;2023-10-19T11:22:50;15.80;62.40
5192;DHT22;2615;44.524;11.284;2023-10-19T11:25:20;15.80;62.40
5192;DHT22;2615;44.524;11.284;2023-10-19T11:27:48;15.80;62.30
5192;DHT22;2615;44.524;11.284;2023-10-19T11:30:25;15.80;62.40
5192;DHT22;2615;44.524;11.284;2023-10-19T11:32:54;15.80;63.10
5192;DHT22;2615;44.524;11.284;2023-10-19T11:35:25;15.80;62.40
5192;DHT22;2615;44.524;11.284;2023-10-19T11:37:55;15.80;62.40
5192;DHT22;2615;44.524;11.284;2023-10-19T11:40:25;15.80;62.40
5192;DHT22;2615;44.524;11.284;2023-10-19T11:42:54;15.80;62.50
5192;DHT22;2615;44.524;11.284;2023-10-19T11:45:25;15.70;62.40
5192;DHT22;2615;44.524;11.284;2023-10-19T11:47:53;15.70;62.40
5192;DHT22;2615;44.524;11.284;2023-10-19T11:50:24;15.70;62.50
5192;DHT22;2615;44.524;11.284;2023-10-19T11:52:52;15.70;62.50
5192;DHT22;2615;44.524;11.284;2023-10-19T11:55:20;15.70;62.50
5192;DHT22;2615;44.524;11.284;2023-10-19T11:57:49;15.70;62.50
5192;DHT22;2615;44.524;11.284;2023-10-19T12:00:17;15.70;62.50
5192;DHT22;2615;44.524;11.284;2023-10-19T12:02:50;15.70;62.50
5192;DHT22;2615;44.524;11.284;2023-10-19T12:05:20;15.70;62.50
5192;DHT22;2615;44.524;11.284;2023-10-19T12:07:48;15.70;63.30
5192;DHT22;2615;44.524;11.284;2023-10-19T12:10:19;15.60;62.50
5192;DHT22;2615;44.524;11.284;2023-10-19T12:12:52;15.60;62.60
5192;DHT22;2615;44.524;11.284;2023-10-19T12:15:29;15.60;62.60
5192;DHT22;2615;44.524;11.284;2023-10-19T12:17:59;15.60;62.60
5192;DHT22;2615;44.524;11.284;2023-10-19T12:20:28;15.60;62.60
5192;DHT22;2615;44.524;11.284;2023-10-19T12:22:58;15.70;62.80
5192;DHT22;2615;44.524;11.284;2023-10-19T12:25:27;15.60;62.60
5192;DHT22;2615;44.524;11.284;2023-10-19T12:28:19;15.60;62.70
5192;DHT22;2615;44.524;11.284;2023-10-19T12:30:47;15.60;62.80
5192;DHT22;2615;44.524;11.284;2023-10-19T12:33:17;15.60;62.80
5192;DHT22;2615;44.524;11.284;2023-10-19T12:35:47;15.60;62.80
5192;DHT22;2615;44.524;11.284;2023-10-19T12:38:20;15.60;62.90
5192;DHT22;2615;44.524;11.284;2023-10-19T12:40:49;15.60;62.80
5192;DHT22;2615;44.524;11.284;2023-10-19T12:43:18;15.60;62.90
5192;DHT22;2615;44.524;11.284;2023-10-19T12:45:48;15.60;62.90
5192;DHT22;2615;44.524;11.284;2023-10-19T12:48:22;15.60;62.90
5192;DHT22;2615;44.524;11.284;2023-10-19T12:50:52;15.60;62.90
5192;DHT22;2615;44.524;11.284;2023-10-19T12:53:21;15.60;62.90
5192;DHT22;2615;44.524;11.284;2023-10-19T12:55:51;15.60;62.80
5192;DHT22;2615;44.524;11.284;2023-10-19T12:58:20;15.60;62.90
5192;DHT22;2615;44.524;11.284;2023-10-19T13:00:48;15.60;62.90
5192;DHT22;2615;44.524;11.284;2023-10-19T13:03:17;15.70;63.10
5192;DHT22;2615;44.524;11.284;2023-10-19T13:05:47;15.70;63.00
5192;DHT22;2615;44.524;11.284;2023-10-19T13:08:16;15.70;63.00
5192;DHT22;2615;44.524;11.284;2023-10-19T13:10:47;15.70;62.90
5192;DHT22;2615;44.524;11.284;2023-10-19T13:13:19;15.80;63.00
5192;DHT22;2615;44.524;11.284;2023-10-19T13:15:50;15.80;63.00
5192;DHT22;2615;44.524;11.284;2023-10-19T13:18:20;15.80;63.00
5192;DHT22;2615;44.524;11.284;2023-10-19T13:20:56;15.80;63.10
5192;DHT22;2615;44.524;11.284;2023-10-19T13:23:25;15.80;63.00
5192;DHT22;2615;44.524;11.284;2023-10-19T13:25:55;15.70;62.90
5192;DHT22;2615;44.524;11.284;2023-10-19T13:28:39;15.70;63.00
5192;DHT22;2615;44.524;11.284;2023-10-19T13:31:08;15.70;63.00
5192;DHT22;2615;44.524;11.284;2023-10-19T13:33:36;15.70;63.00
5192;DHT22;2615;44.524;11.284;2023-10-19T13:36:06;15.80;63.20
5192;DHT22;2615;44.524;11.284;2023-10-19T13:38:35;15.70;63.10
5192;DHT22;2615;44.524;11.284;2023-10-19T13:41:05;15.70;63.10
5192;DHT22;2615;44.524;11.284;2023-10-19T13:43:34;15.70;63.10
5192;DHT22;2615;44.524;11.284;2023-10-19T13:46:05;15.70;63.10
5192;DHT22;2615;44.524;11.284;2023-10-19T13:48:33;15.70;63.10
5192;DHT22;2615;44.524;11.284;2023-10-19T13:51:03;15.70;63.20
5192;DHT22;2615;44.524;11.284;2023-10-19T13:53:41;15.70;63.20
5192;DHT22;2615;44.524;11.284;2023-10-19T13:56:12;15.70;63.20
5192;DHT22;2615;44.524;11.284;2023-10-19T13:58:42;15.70;63.30
5192;DHT22;2615;44.524;11.284;2023-10-19T14:01:10;15.70;63.30
5192;DHT22;2615;44.524;11.284;2023-10-19T14:03:41;15.70;63.40
5192;DHT22;2615;44.524;11.284;2023-10-19T14:06:12;15.60;63.20
5192;DHT22;2615;44.524;11.284;2023-10-19T14:08:42;15.60;63.30
5192;DHT22;2615;44.524;11.284;2023-10-19T14:11:10;15.60;63.20
5192;DHT22;2615;44.524;11.284;2023-10-19T14:13:39;15.60;63.30
5192;DHT22;2615;44.524;11.284;2023-10-19T14:16:09;15.70;63.50
5192;DHT22;2615;44.524;11.284;2023-10-19T14:18:38;15.70;63.50
5192;DHT22;2615;44.524;11.284;2023-10-19T14:21:14;15.70;63.40
5192;DHT22;2615;44.524;11.284;2023-10-19T14:23:44;15.80;63.40
5192;DHT22;2615;44.524;11.284;2023-10-19T14:26:13;15.90;63.40
5192;DHT22;2615;44.524;11.284;2023-10-19T14:28:41;15.90;63.30
5192;DHT22;2615;44.524;11.284;2023-10-19T14:31:10;16.00;63.30
5192;DHT22;2615;44.524;11.284;2023-10-19T14:33:39;16.00;63.30
5192;DHT22;2615;44.524;11.284;2023-10-19T14:36:08;16.00;63.30
5192;DHT22;2615;44.524;11.284;2023-10-19T14:38:36;16.00;63.20
5192;DHT22;2615;44.524;11.284;2023-10-19T14:41:08;16.00;63.20
5192;DHT22;2615;44.524;11.284;2023-10-19T14:43:37;16.00;63.20
5192;DHT22;2615;44.524;11.284;2023-10-19T14:46:05;16.10;63.30
5192;DHT22;2615;44.524;11.284;2023-10-19T14:48:34;16.10;63.30
5192;DHT22;2615;44.524;11.284;2023-10-19T14:51:03;16.10;63.30
5192;DHT22;2615;44.524;11.284;2023-10-19T14:53:32;16.10;63.30
5192;DHT22;2615;44.524;11.284;2023-10-19T14:56:01;16.10;63.30
5192;DHT22;2615;44.524;11.284;2023-10-19T14:58:30;16.10;63.30
5192;DHT22;2615;44.524;11.284;2023-10-19T15:00:59;16.00;63.20
5192;DHT22;2615;44.524;11.284;2023-10-19T15:03:27;16.10;63.30
5192;DHT22;2615;44.524;11.284;2023-10-19T15:05:56;16.10;63.40
5192;DHT22;2615;44.524;11.284;2023-10-19T15:08:28;16.10;63.30
5192;DHT22;2615;44.524;11.284;2023-10-19T15:10:58;16.10;63.30
5192;DHT22;2615;44.524;11.284;2023-10-19T15:13:27;16.00;63.20
5192;DHT22;2615;44.524;11.284;2023-10-19T15:15:56;16.00;63.20
5192;DHT22;2615;44.524;11.284;2023-10-19T15:18:24;15.90;63.30
5192;DHT22;2615;44.524;11.284;2023-10-19T15:20:53;15.90;63.30
5192;DHT22;2615;44.524;11.284;2023-10-19T15:23:21;15.90;63.30
5192;DHT22;2615;44.524;11.284;2023-10-19T15:25:49;15.90;63.30
5192;DHT22;2615;44.524;11.284;2023-10-19T15:28:18;15.90;63.40
5192;DHT22;2615;44.524;11.284;2023-10-19T15:30:46;15.90;63.40
5192;DHT22;2615;44.524;11.284;2023-10-19T15:33:17;15.90;63.50
5192;DHT22;2615;44.524;11.284;2023-10-19T15:35:47;15.90;63.40
5192;DHT22;2615;44.524;11.284;2023-10-19T15:38:16;15.90;63.50
5192;DHT22;2615;44.524;11.284;2023-10-19T15:40:44;15.80;63.50
5192;DHT22;2615;44.524;11.284;2023-10-19T15:43:12;15.80;63.50
5192;DHT22;2615;44.524;11.284;2023-10-19T15:45:40;15.80;63.50
5192;DHT22;2615;44.524;11.284;2023-10-19T15:48:11;15.80;63.50
5192;DHT22;2615;44.524;11.284;2023-10-19T15:50:41;15.80;63.50
5192;DHT22;2615;44.524;11.284;2023-10-19T15:53:10;15.80;63.50
5192;DHT22;2615;44.524;11.284;2023-10-19T15:55:38;15.80;63.50
5192;DHT22;2615;44.524;11.284;2023-10-19T15:58:06;15.80;63.50
5192;DHT22;2615;44.524;11.284;2023-10-19T16:00:35;15.80;63.50
5192;DHT22;2615;44.524;11.284;2023-10-19T16:03:05;15.80;63.50
5192;DHT22;2615;44.524;11.284;2023-10-19T16:05:34;15.80;63.50
5192;DHT22;2615;44.524;11.284;2023-10-19T16:08:05;15.80;63.50